sensor_id;sensor_type;location;lat;lon;timestamp;P1;durP1;ratioP1;P2;durP2;ratioP2
7829;SDS011;3960;51.86894000;5.39848000;2022-10-01T00:00:32;9.02;;;5.30;;
7829;SDS011;3960;51.86894000;5.39848000;2022-10-01T00:02:58;9.15;;;5.38;;
7829;SDS011;3960;51.86894000;5.39848000;2022-10-01T00:05:23;7.37;;;5.60;;
7829;SDS011;3960;51.86894000;5.39848000;2022-10-01T00:07:48;7.77;;;5.37;;
7829;SDS011;3960;51.86894000;5.39848000;2022-10-01T00:10:14;7.43;;;5.40;;
7829;SDS011;3960;51.86894000;5.39848000;2022-10-01T00:12:42;10.02;;;5.50;;
7829;SDS011;3960;51.86894000;5.39848000;2022-10-01T00:15:10;6.40;;;5.63;;
7829;SDS011;3960;51.86894000;5.39848000;2022-10-01T00:17:35;12.17;;;6.23;;
7829;SDS011;3960;51.86894000;5.39848000;2022-10-01T00:20:01;7.47;;;5.97;;
7829;SDS011;3960;51.86894000;5.39848000;2022-10-01T00:22:26;10.18;;;5.95;;
7829;SDS011;3960;51.86894000;5.39848000;2022-10-01T00:24:51;8.20;;;5.63;;
7829;SDS011;3960;51.86894000;5.39848000;2022-10-01T00:27:16;8.20;;;6.03;;
7829;SDS011;3960;51.86894000;5.39848000;2022-10-01T00:29:42;7.43;;;5.53;;
7829;SDS011;3960;51.86894000;5.39848000;2022-10-01T00:32:09;8.10;;;5.68;;
7829;SDS011;3960;51.86894000;5.39848000;2022-10-01T00:34:34;8.37;;;5.47;;
7829;SDS011;3960;51.86894000;5.39848000;2022-10-01T00:36:59;6.13;;;5.23;;
7829;SDS011;3960;51.86894000;5.39848000;2022-10-01T00:39:24;9.83;;;5.80;;
7829;SDS011;3960;51.86894000;5.39848000;2022-10-01T00:41:50;9.82;;;5.88;;
7829;SDS011;3960;51.86894000;5.39848000;2022-10-01T00:44:33;12.10;;;5.43;;
7829;SDS011;3960;51.86894000;5.39848000;2022-10-01T00:47:41;7.60;;;5.25;;
7829;SDS011;3960;51.86894000;5.39848000;2022-10-01T00:49:47;7.82;;;5.60;;
7829;SDS011;3960;51.86894000;5.39848000;2022-10-01T00:52:15;9.27;;;4.88;;
7829;SDS011;3960;51.86894000;5.39848000;2022-10-01T00:54:48;7.07;;;5.60;;
7829;SDS011;3960;51.86894000;5.39848000;2022-10-01T00:57:15;10.85;;;5.35;;
7829;SDS011;3960;51.86894000;5.39848000;2022-10-01T00:59:42;8.82;;;5.03;;
7829;SDS011;3960;51.86894000;5.39848000;2022-10-01T01:02:07;9.30;;;5.30;;
7829;SDS011;3960;51.86894000;5.39848000;2022-10-01T01:04:32;7.40;;;5.28;;
7829;SDS011;3960;51.86894000;5.39848000;2022-10-01T01:06:59;5.97;;;4.78;;
7829;SDS011;3960;51.86894000;5.39848000;2022-10-01T01:09:27;7.57;;;4.95;;
7829;SDS011;3960;51.86894000;5.39848000;2022-10-01T01:12:01;6.93;;;5.35;;
7829;SDS011;3960;51.86894000;5.39848000;2022-10-01T01:17:24;8.40;;;5.35;;
7829;SDS011;3960;51.86894000;5.39848000;2022-10-01T01:22:39;7.55;;;5.47;;
7829;SDS011;3960;51.86894000;5.39848000;2022-10-01T01:25:07;7.78;;;5.28;;
7829;SDS011;3960;51.86894000;5.39848000;2022-10-01T01:27:40;7.75;;;5.15;;
7829;SDS011;3960;51.86894000;5.39848000;2022-10-01T01:30:07;8.65;;;5.72;;
7829;SDS011;3960;51.86894000;5.39848000;2022-10-01T01:32:39;7.75;;;5.45;;
7829;SDS011;3960;51.86894000;5.39848000;2022-10-01T01:35:07;7.20;;;5.20;;
7829;SDS011;3960;51.86894000;5.39848000;2022-10-01T01:37:35;5.45;;;4.28;;
7829;SDS011;3960;51.86894000;5.39848000;2022-10-01T01:40:02;5.50;;;4.18;;
7829;SDS011;3960;51.86894000;5.39848000;2022-10-01T01:42:29;6.93;;;4.25;;
7829;SDS011;3960;51.86894000;5.39848000;2022-10-01T01:44:57;4.65;;;3.50;;
7829;SDS011;3960;51.86894000;5.39848000;2022-10-01T01:47:23;4.43;;;3.75;;
7829;SDS011;3960;51.86894000;5.39848000;2022-10-01T01:49:50;5.20;;;3.67;;
7829;SDS011;3960;51.86894000;5.39848000;2022-10-01T01:52:16;5.30;;;3.70;;
7829;SDS011;3960;51.86894000;5.39848000;2022-10-01T01:54:45;5.05;;;3.30;;
7829;SDS011;3960;51.86894000;5.39848000;2022-10-01T01:57:11;6.18;;;3.55;;
7829;SDS011;3960;51.86894000;5.39848000;2022-10-01T01:59:37;5.88;;;3.83;;
7829;SDS011;3960;51.86894000;5.39848000;2022-10-01T02:02:04;6.28;;;3.33;;
7829;SDS011;3960;51.86894000;5.39848000;2022-10-01T02:04:33;4.40;;;3.00;;
7829;SDS011;3960;51.86894000;5.39848000;2022-10-01T02:12:33;3.60;;;2.50;;
7829;SDS011;3960;51.86894000;5.39848000;2022-10-01T02:14:46;3.45;;;2.50;;
7829;SDS011;3960;51.86894000;5.39848000;2022-10-01T02:20:00;3.53;;;2.67;;
7829;SDS011;3960;51.86894000;5.39848000;2022-10-01T02:22:37;3.53;;;2.60;;
7829;SDS011;3960;51.86894000;5.39848000;2022-10-01T02:25:04;4.55;;;3.00;;
7829;SDS011;3960;51.86894000;5.39848000;2022-10-01T02:27:39;3.65;;;2.78;;
7829;SDS011;3960;51.86894000;5.39848000;2022-10-01T02:30:08;4.65;;;2.63;;
7829;SDS011;3960;51.86894000;5.39848000;2022-10-01T02:32:34;4.70;;;2.65;;
7829;SDS011;3960;51.86894000;5.39848000;2022-10-01T02:35:02;5.10;;;2.90;;
7829;SDS011;3960;51.86894000;5.39848000;2022-10-01T02:37:28;3.20;;;2.35;;
7829;SDS011;3960;51.86894000;5.39848000;2022-10-01T02:39:54;2.53;;;2.08;;
7829;SDS011;3960;51.86894000;5.39848000;2022-10-01T02:42:20;4.35;;;2.60;;
7829;SDS011;3960;51.86894000;5.39848000;2022-10-01T02:44:47;3.15;;;2.20;;
7829;SDS011;3960;51.86894000;5.39848000;2022-10-01T02:49:41;2.83;;;2.30;;
7829;SDS011;3960;51.86894000;5.39848000;2022-10-01T02:52:08;2.42;;;1.95;;
7829;SDS011;3960;51.86894000;5.39848000;2022-10-01T02:54:48;3.72;;;2.20;;
7829;SDS011;3960;51.86894000;5.39848000;2022-10-01T02:57:15;5.97;;;2.20;;
7829;SDS011;3960;51.86894000;5.39848000;2022-10-01T02:59:46;3.00;;;2.38;;
7829;SDS011;3960;51.86894000;5.39848000;2022-10-01T03:02:12;4.03;;;2.30;;
7829;SDS011;3960;51.86894000;5.39848000;2022-10-01T03:04:38;1.90;;;1.70;;
7829;SDS011;3960;51.86894000;5.39848000;2022-10-01T03:07:03;2.87;;;2.00;;
7829;SDS011;3960;51.86894000;5.39848000;2022-10-01T03:09:29;6.40;;;2.05;;
7829;SDS011;3960;51.86894000;5.39848000;2022-10-01T03:11:55;3.10;;;2.30;;
7829;SDS011;3960;51.86894000;5.39848000;2022-10-01T03:14:21;3.40;;;2.15;;
7829;SDS011;3960;51.86894000;5.39848000;2022-10-01T03:16:47;2.30;;;1.98;;
7829;SDS011;3960;51.86894000;5.39848000;2022-10-01T03:19:12;2.07;;;1.87;;
7829;SDS011;3960;51.86894000;5.39848000;2022-10-01T03:21:38;3.20;;;2.05;;
7829;SDS011;3960;51.86894000;5.39848000;2022-10-01T03:24:03;2.83;;;2.30;;
7829;SDS011;3960;51.86894000;5.39848000;2022-10-01T03:26:28;3.53;;;2.00;;
7829;SDS011;3960;51.86894000;5.39848000;2022-10-01T03:28:53;4.33;;;2.43;;
7829;SDS011;3960;51.86894000;5.39848000;2022-10-01T03:31:18;3.20;;;2.33;;
7829;SDS011;3960;51.86894000;5.39848000;2022-10-01T03:33:44;3.47;;;2.30;;
7829;SDS011;3960;51.86894000;5.39848000;2022-10-01T03:36:09;2.97;;;2.40;;
7829;SDS011;3960;51.86894000;5.39848000;2022-10-01T03:38:34;2.80;;;2.40;;
7829;SDS011;3960;51.86894000;5.39848000;2022-10-01T03:40:59;4.50;;;2.60;;
7829;SDS011;3960;51.86894000;5.39848000;2022-10-01T03:43:24;2.63;;;2.30;;
7829;SDS011;3960;51.86894000;5.39848000;2022-10-01T03:45:52;2.40;;;2.15;;
7829;SDS011;3960;51.86894000;5.39848000;2022-10-01T03:48:18;4.00;;;2.70;;
7829;SDS011;3960;51.86894000;5.39848000;2022-10-01T03:50:50;2.30;;;2.10;;
7829;SDS011;3960;51.86894000;5.39848000;2022-10-01T03:53:17;5.97;;;2.60;;
7829;SDS011;3960;51.86894000;5.39848000;2022-10-01T03:55:42;2.53;;;2.30;;
7829;SDS011;3960;51.86894000;5.39848000;2022-10-01T03:58:07;2.70;;;2.40;;
7829;SDS011;3960;51.86894000;5.39848000;2022-10-01T04:00:33;4.43;;;2.90;;
7829;SDS011;3960;51.86894000;5.39848000;2022-10-01T04:02:58;4.45;;;2.60;;
7829;SDS011;3960;51.86894000;5.39848000;2022-10-01T04:05:24;7.33;;;2.90;;
7829;SDS011;3960;51.86894000;5.39848000;2022-10-01T04:07:49;3.38;;;2.65;;
7829;SDS011;3960;51.86894000;5.39848000;2022-10-01T04:10:14;5.90;;;2.97;;
7829;SDS011;3960;51.86894000;5.39848000;2022-10-01T04:12:40;5.43;;;3.08;;
7829;SDS011;3960;51.86894000;5.39848000;2022-10-01T04:15:05;3.20;;;2.90;;
7829;SDS011;3960;51.86894000;5.39848000;2022-10-01T04:17:30;3.30;;;2.97;;
7829;SDS011;3960;51.86894000;5.39848000;2022-10-01T04:19:56;4.15;;;3.20;;
7829;SDS011;3960;51.86894000;5.39848000;2022-10-01T04:22:21;2.95;;;2.55;;
7829;SDS011;3960;51.86894000;5.39848000;2022-10-01T04:24:47;4.22;;;3.10;;
7829;SDS011;3960;51.86894000;5.39848000;2022-10-01T04:27:12;3.30;;;2.97;;
7829;SDS011;3960;51.86894000;5.39848000;2022-10-01T04:29:37;3.87;;;3.40;;
7829;SDS011;3960;51.86894000;5.39848000;2022-10-01T04:32:02;3.53;;;2.90;;
7829;SDS011;3960;51.86894000;5.39848000;2022-10-01T04:34:27;3.93;;;2.90;;
7829;SDS011;3960;51.86894000;5.39848000;2022-10-01T04:37:13;3.35;;;3.03;;
7829;SDS011;3960;51.86894000;5.39848000;2022-10-01T04:39:38;5.87;;;3.30;;
7829;SDS011;3960;51.86894000;5.39848000;2022-10-01T04:42:03;3.47;;;3.10;;
7829;SDS011;3960;51.86894000;5.39848000;2022-10-01T04:44:28;4.77;;;3.67;;
7829;SDS011;3960;51.86894000;5.39848000;2022-10-01T04:46:54;3.95;;;3.45;;
7829;SDS011;3960;51.86894000;5.39848000;2022-10-01T04:49:19;4.85;;;3.17;;
7829;SDS011;3960;51.86894000;5.39848000;2022-10-01T04:51:44;3.87;;;3.47;;
7829;SDS011;3960;51.86894000;5.39848000;2022-10-01T04:54:09;3.42;;;3.13;;
7829;SDS011;3960;51.86894000;5.39848000;2022-10-01T04:56:34;5.70;;;3.60;;
7829;SDS011;3960;51.86894000;5.39848000;2022-10-01T04:58:59;4.10;;;3.63;;
7829;SDS011;3960;51.86894000;5.39848000;2022-10-01T05:01:25;5.03;;;3.87;;
7829;SDS011;3960;51.86894000;5.39848000;2022-10-01T05:03:50;4.70;;;3.90;;
7829;SDS011;3960;51.86894000;5.39848000;2022-10-01T05:06:15;8.95;;;4.10;;
7829;SDS011;3960;51.86894000;5.39848000;2022-10-01T05:08:40;5.32;;;4.47;;
7829;SDS011;3960;51.86894000;5.39848000;2022-10-01T05:11:05;5.07;;;4.27;;
7829;SDS011;3960;51.86894000;5.39848000;2022-10-01T05:13:31;6.75;;;4.28;;
7829;SDS011;3960;51.86894000;5.39848000;2022-10-01T05:15:57;6.03;;;4.77;;
7829;SDS011;3960;51.86894000;5.39848000;2022-10-01T05:18:22;6.47;;;5.20;;
7829;SDS011;3960;51.86894000;5.39848000;2022-10-01T05:20:47;7.77;;;5.13;;
7829;SDS011;3960;51.86894000;5.39848000;2022-10-01T05:23:12;6.47;;;5.67;;
7829;SDS011;3960;51.86894000;5.39848000;2022-10-01T05:25:37;8.23;;;6.20;;
7829;SDS011;3960;51.86894000;5.39848000;2022-10-01T05:28:03;7.90;;;7.05;;
7829;SDS011;3960;51.86894000;5.39848000;2022-10-01T05:30:29;7.72;;;6.57;;
7829;SDS011;3960;51.86894000;5.39848000;2022-10-01T05:32:55;10.65;;;6.78;;
7829;SDS011;3960;51.86894000;5.39848000;2022-10-01T05:35:21;9.52;;;7.38;;
7829;SDS011;3960;51.86894000;5.39848000;2022-10-01T05:37:46;11.55;;;8.18;;
7829;SDS011;3960;51.86894000;5.39848000;2022-10-01T05:40:11;10.85;;;8.48;;
7829;SDS011;3960;51.86894000;5.39848000;2022-10-01T05:42:36;9.63;;;8.63;;
7829;SDS011;3960;51.86894000;5.39848000;2022-10-01T05:45:01;9.52;;;8.52;;
7829;SDS011;3960;51.86894000;5.39848000;2022-10-01T05:47:27;13.32;;;9.30;;
7829;SDS011;3960;51.86894000;5.39848000;2022-10-01T05:49:52;11.30;;;9.40;;
7829;SDS011;3960;51.86894000;5.39848000;2022-10-01T05:52:20;10.87;;;9.77;;
7829;SDS011;3960;51.86894000;5.39848000;2022-10-01T05:54:54;11.45;;;10.25;;
7829;SDS011;3960;51.86894000;5.39848000;2022-10-01T05:57:19;11.20;;;9.70;;
7829;SDS011;3960;51.86894000;5.39848000;2022-10-01T05:59:44;12.70;;;11.07;;
7829;SDS011;3960;51.86894000;5.39848000;2022-10-01T06:02:09;15.50;;;11.00;;
7829;SDS011;3960;51.86894000;5.39848000;2022-10-01T06:04:34;12.77;;;11.47;;
7829;SDS011;3960;51.86894000;5.39848000;2022-10-01T06:07:00;12.83;;;11.50;;
7829;SDS011;3960;51.86894000;5.39848000;2022-10-01T06:09:25;14.57;;;12.15;;
7829;SDS011;3960;51.86894000;5.39848000;2022-10-01T06:11:50;16.27;;;12.50;;
7829;SDS011;3960;51.86894000;5.39848000;2022-10-01T06:14:15;16.80;;;12.52;;
7829;SDS011;3960;51.86894000;5.39848000;2022-10-01T06:16:40;16.15;;;12.63;;
7829;SDS011;3960;51.86894000;5.39848000;2022-10-01T06:19:06;20.47;;;13.47;;
7829;SDS011;3960;51.86894000;5.39848000;2022-10-01T06:21:31;15.33;;;12.27;;
7829;SDS011;3960;51.86894000;5.39848000;2022-10-01T06:23:56;16.40;;;12.73;;
7829;SDS011;3960;51.86894000;5.39848000;2022-10-01T06:26:21;14.95;;;13.13;;
7829;SDS011;3960;51.86894000;5.39848000;2022-10-01T06:28:50;21.33;;;13.07;;
7829;SDS011;3960;51.86894000;5.39848000;2022-10-01T06:31:18;15.25;;;12.75;;
7829;SDS011;3960;51.86894000;5.39848000;2022-10-01T06:33:43;16.50;;;13.68;;
7829;SDS011;3960;51.86894000;5.39848000;2022-10-01T06:36:08;20.37;;;14.53;;
7829;SDS011;3960;51.86894000;5.39848000;2022-10-01T06:38:34;18.43;;;14.20;;
7829;SDS011;3960;51.86894000;5.39848000;2022-10-01T06:41:00;18.23;;;14.73;;
7829;SDS011;3960;51.86894000;5.39848000;2022-10-01T06:43:26;19.65;;;15.13;;
7829;SDS011;3960;51.86894000;5.39848000;2022-10-01T06:45:52;16.88;;;13.20;;
7829;SDS011;3960;51.86894000;5.39848000;2022-10-01T06:48:18;12.05;;;10.70;;
7829;SDS011;3960;51.86894000;5.39848000;2022-10-01T06:50:43;11.10;;;9.07;;
7829;SDS011;3960;51.86894000;5.39848000;2022-10-01T06:53:09;12.77;;;8.52;;
7829;SDS011;3960;51.86894000;5.39848000;2022-10-01T06:55:35;9.13;;;8.20;;
7829;SDS011;3960;51.86894000;5.39848000;2022-10-01T06:58:02;10.40;;;8.70;;
7829;SDS011;3960;51.86894000;5.39848000;2022-10-01T07:00:28;14.05;;;8.93;;
7829;SDS011;3960;51.86894000;5.39848000;2022-10-01T07:02:54;10.30;;;9.20;;
7829;SDS011;3960;51.86894000;5.39848000;2022-10-01T07:05:19;12.40;;;8.35;;
7829;SDS011;3960;51.86894000;5.39848000;2022-10-01T07:07:45;10.52;;;8.18;;
7829;SDS011;3960;51.86894000;5.39848000;2022-10-01T07:10:12;9.48;;;7.65;;
7829;SDS011;3960;51.86894000;5.39848000;2022-10-01T07:12:37;10.82;;;7.53;;
7829;SDS011;3960;51.86894000;5.39848000;2022-10-01T07:15:04;11.40;;;8.27;;
7829;SDS011;3960;51.86894000;5.39848000;2022-10-01T07:17:30;9.45;;;7.80;;
7829;SDS011;3960;51.86894000;5.39848000;2022-10-01T07:19:55;11.48;;;8.43;;
7829;SDS011;3960;51.86894000;5.39848000;2022-10-01T07:22:20;14.90;;;8.67;;
7829;SDS011;3960;51.86894000;5.39848000;2022-10-01T07:24:48;11.63;;;8.82;;
7829;SDS011;3960;51.86894000;5.39848000;2022-10-01T07:27:13;11.27;;;8.83;;
7829;SDS011;3960;51.86894000;5.39848000;2022-10-01T07:29:38;13.68;;;9.45;;
7829;SDS011;3960;51.86894000;5.39848000;2022-10-01T07:32:04;12.35;;;9.52;;
7829;SDS011;3960;51.86894000;5.39848000;2022-10-01T07:34:32;12.27;;;10.25;;
7829;SDS011;3960;51.86894000;5.39848000;2022-10-01T07:36:58;18.75;;;10.70;;
7829;SDS011;3960;51.86894000;5.39848000;2022-10-01T07:39:23;15.23;;;9.52;;
7829;SDS011;3960;51.86894000;5.39848000;2022-10-01T07:41:48;13.80;;;10.03;;
7829;SDS011;3960;51.86894000;5.39848000;2022-10-01T07:44:15;14.23;;;10.70;;
7829;SDS011;3960;51.86894000;5.39848000;2022-10-01T07:46:40;14.13;;;9.80;;
7829;SDS011;3960;51.86894000;5.39848000;2022-10-01T07:49:06;15.57;;;9.70;;
7829;SDS011;3960;51.86894000;5.39848000;2022-10-01T07:51:32;18.42;;;11.20;;
7829;SDS011;3960;51.86894000;5.39848000;2022-10-01T07:53:57;14.73;;;9.75;;
7829;SDS011;3960;51.86894000;5.39848000;2022-10-01T07:56:25;14.80;;;9.63;;
7829;SDS011;3960;51.86894000;5.39848000;2022-10-01T07:58:57;14.65;;;10.63;;
7829;SDS011;3960;51.86894000;5.39848000;2022-10-01T08:01:22;20.17;;;9.63;;
7829;SDS011;3960;51.86894000;5.39848000;2022-10-01T08:03:48;8.43;;;4.45;;
7829;SDS011;3960;51.86894000;5.39848000;2022-10-01T08:06:14;4.93;;;1.70;;
7829;SDS011;3960;51.86894000;5.39848000;2022-10-01T08:08:40;6.38;;;1.80;;
7829;SDS011;3960;51.86894000;5.39848000;2022-10-01T08:11:05;6.55;;;2.00;;
7829;SDS011;3960;51.86894000;5.39848000;2022-10-01T08:13:31;4.25;;;2.40;;
7829;SDS011;3960;51.86894000;5.39848000;2022-10-01T08:15:57;3.55;;;1.80;;
7829;SDS011;3960;51.86894000;5.39848000;2022-10-01T08:18:23;6.03;;;1.73;;
7829;SDS011;3960;51.86894000;5.39848000;2022-10-01T08:20:48;3.47;;;1.45;;
7829;SDS011;3960;51.86894000;5.39848000;2022-10-01T08:23:14;3.40;;;1.58;;
7829;SDS011;3960;51.86894000;5.39848000;2022-10-01T08:25:40;4.10;;;1.73;;
7829;SDS011;3960;51.86894000;5.39848000;2022-10-01T08:28:06;4.47;;;2.00;;
7829;SDS011;3960;51.86894000;5.39848000;2022-10-01T08:30:32;4.60;;;2.10;;
7829;SDS011;3960;51.86894000;5.39848000;2022-10-01T08:32:58;3.47;;;1.92;;
7829;SDS011;3960;51.86894000;5.39848000;2022-10-01T08:35:23;2.88;;;1.65;;
7829;SDS011;3960;51.86894000;5.39848000;2022-10-01T08:37:49;5.32;;;1.90;;
7829;SDS011;3960;51.86894000;5.39848000;2022-10-01T08:40:14;8.30;;;1.90;;
7829;SDS011;3960;51.86894000;5.39848000;2022-10-01T08:42:43;8.20;;;1.88;;
7829;SDS011;3960;51.86894000;5.39848000;2022-10-01T08:45:22;3.55;;;1.58;;
7829;SDS011;3960;51.86894000;5.39848000;2022-10-01T08:47:51;3.90;;;1.58;;
7829;SDS011;3960;51.86894000;5.39848000;2022-10-01T08:50:26;5.45;;;1.60;;
7829;SDS011;3960;51.86894000;5.39848000;2022-10-01T08:52:54;5.55;;;1.50;;
7829;SDS011;3960;51.86894000;5.39848000;2022-10-01T08:55:23;8.65;;;1.73;;
7829;SDS011;3960;51.86894000;5.39848000;2022-10-01T08:57:50;6.57;;;1.80;;
7829;SDS011;3960;51.86894000;5.39848000;2022-10-01T09:00:18;8.38;;;2.00;;
7829;SDS011;3960;51.86894000;5.39848000;2022-10-01T09:02:43;6.68;;;1.95;;
7829;SDS011;3960;51.86894000;5.39848000;2022-10-01T09:05:30;7.20;;;1.70;;
7829;SDS011;3960;51.86894000;5.39848000;2022-10-01T09:10:48;7.80;;;1.80;;
7829;SDS011;3960;51.86894000;5.39848000;2022-10-01T09:18:36;8.30;;;2.30;;
7829;SDS011;3960;51.86894000;5.39848000;2022-10-01T09:21:06;7.97;;;1.98;;
7829;SDS011;3960;51.86894000;5.39848000;2022-10-01T09:23:36;10.88;;;2.20;;
7829;SDS011;3960;51.86894000;5.39848000;2022-10-01T09:26:03;10.85;;;3.55;;
7829;SDS011;3960;51.86894000;5.39848000;2022-10-01T09:28:30;7.35;;;2.17;;
7829;SDS011;3960;51.86894000;5.39848000;2022-10-01T09:30:59;13.05;;;2.63;;
7829;SDS011;3960;51.86894000;5.39848000;2022-10-01T09:33:29;10.88;;;3.00;;
7829;SDS011;3960;51.86894000;5.39848000;2022-10-01T09:40:57;13.93;;;3.13;;
7829;SDS011;3960;51.86894000;5.39848000;2022-10-01T09:43:25;16.55;;;2.72;;
7829;SDS011;3960;51.86894000;5.39848000;2022-10-01T09:45:51;13.25;;;2.90;;
7829;SDS011;3960;51.86894000;5.39848000;2022-10-01T09:48:18;9.50;;;2.47;;
7829;SDS011;3960;51.86894000;5.39848000;2022-10-01T09:50:47;9.90;;;2.28;;
7829;SDS011;3960;51.86894000;5.39848000;2022-10-01T09:53:19;15.23;;;2.65;;
7829;SDS011;3960;51.86894000;5.39848000;2022-10-01T09:55:49;11.73;;;2.10;;
7829;SDS011;3960;51.86894000;5.39848000;2022-10-01T09:58:16;12.95;;;2.58;;
7829;SDS011;3960;51.86894000;5.39848000;2022-10-01T10:00:42;10.30;;;2.08;;
7829;SDS011;3960;51.86894000;5.39848000;2022-10-01T10:03:07;8.13;;;2.35;;
7829;SDS011;3960;51.86894000;5.39848000;2022-10-01T10:05:40;12.38;;;2.42;;
7829;SDS011;3960;51.86894000;5.39848000;2022-10-01T10:08:18;16.77;;;2.35;;
7829;SDS011;3960;51.86894000;5.39848000;2022-10-01T10:10:51;10.40;;;2.70;;
7829;SDS011;3960;51.86894000;5.39848000;2022-10-01T10:13:35;14.63;;;2.70;;
7829;SDS011;3960;51.86894000;5.39848000;2022-10-01T10:18:40;14.15;;;2.67;;
7829;SDS011;3960;51.86894000;5.39848000;2022-10-01T10:21:11;12.90;;;2.17;;
7829;SDS011;3960;51.86894000;5.39848000;2022-10-01T10:24:19;10.20;;;2.10;;
7829;SDS011;3960;51.86894000;5.39848000;2022-10-01T10:28:56;8.05;;;1.92;;
7829;SDS011;3960;51.86894000;5.39848000;2022-10-01T10:31:22;11.52;;;2.08;;
7829;SDS011;3960;51.86894000;5.39848000;2022-10-01T10:33:57;20.83;;;2.63;;
7829;SDS011;3960;51.86894000;5.39848000;2022-10-01T10:36:31;19.50;;;2.55;;
7829;SDS011;3960;51.86894000;5.39848000;2022-10-01T10:38:57;10.95;;;2.10;;
7829;SDS011;3960;51.86894000;5.39848000;2022-10-01T10:41:23;10.63;;;1.95;;
7829;SDS011;3960;51.86894000;5.39848000;2022-10-01T10:43:51;15.80;;;2.55;;
7829;SDS011;3960;51.86894000;5.39848000;2022-10-01T10:46:35;14.90;;;2.95;;
7829;SDS011;3960;51.86894000;5.39848000;2022-10-01T10:51:47;19.90;;;3.40;;
7829;SDS011;3960;51.86894000;5.39848000;2022-10-01T10:54:22;12.95;;;2.20;;
7829;SDS011;3960;51.86894000;5.39848000;2022-10-01T10:56:51;15.23;;;2.13;;
7829;SDS011;3960;51.86894000;5.39848000;2022-10-01T10:59:17;9.15;;;1.92;;
7829;SDS011;3960;51.86894000;5.39848000;2022-10-01T11:01:42;12.02;;;2.90;;
7829;SDS011;3960;51.86894000;5.39848000;2022-10-01T11:04:14;6.63;;;1.77;;
7829;SDS011;3960;51.86894000;5.39848000;2022-10-01T11:06:52;10.57;;;2.25;;
7829;SDS011;3960;51.86894000;5.39848000;2022-10-01T11:09:17;17.00;;;2.63;;
7829;SDS011;3960;51.86894000;5.39848000;2022-10-01T11:11:49;10.00;;;1.77;;
7829;SDS011;3960;51.86894000;5.39848000;2022-10-01T11:17:04;9.82;;;2.20;;
7829;SDS011;3960;51.86894000;5.39848000;2022-10-01T11:25:32;8.52;;;2.08;;
7829;SDS011;3960;51.86894000;5.39848000;2022-10-01T11:30:00;10.93;;;2.03;;
7829;SDS011;3960;51.86894000;5.39848000;2022-10-01T11:35:04;15.07;;;2.45;;
7829;SDS011;3960;51.86894000;5.39848000;2022-10-01T11:39:58;16.63;;;2.30;;
7829;SDS011;3960;51.86894000;5.39848000;2022-10-01T11:42:31;11.32;;;1.98;;
7829;SDS011;3960;51.86894000;5.39848000;2022-10-01T11:45:01;12.00;;;2.22;;
7829;SDS011;3960;51.86894000;5.39848000;2022-10-01T11:47:35;10.77;;;2.20;;
7829;SDS011;3960;51.86894000;5.39848000;2022-10-01T11:50:03;13.90;;;2.03;;
7829;SDS011;3960;51.86894000;5.39848000;2022-10-01T11:52:46;12.77;;;2.08;;
7829;SDS011;3960;51.86894000;5.39848000;2022-10-01T11:55:22;9.68;;;2.28;;
7829;SDS011;3960;51.86894000;5.39848000;2022-10-01T12:06:32;7.43;;;2.13;;
7829;SDS011;3960;51.86894000;5.39848000;2022-10-01T12:09:00;6.50;;;1.52;;
7829;SDS011;3960;51.86894000;5.39848000;2022-10-01T12:11:30;12.65;;;2.10;;
7829;SDS011;3960;51.86894000;5.39848000;2022-10-01T12:14:08;18.38;;;2.20;;
7829;SDS011;3960;51.86894000;5.39848000;2022-10-01T12:19:01;10.27;;;2.17;;
7829;SDS011;3960;51.86894000;5.39848000;2022-10-01T12:21:32;9.00;;;2.70;;
7829;SDS011;3960;51.86894000;5.39848000;2022-10-01T12:26:44;9.02;;;1.85;;
7829;SDS011;3960;51.86894000;5.39848000;2022-10-01T12:31:48;8.93;;;1.60;;
7829;SDS011;3960;51.86894000;5.39848000;2022-10-01T12:34:27;10.48;;;2.45;;
7829;SDS011;3960;51.86894000;5.39848000;2022-10-01T12:37:44;11.13;;;1.92;;
7829;SDS011;3960;51.86894000;5.39848000;2022-10-01T12:39:50;9.05;;;2.05;;
7829;SDS011;3960;51.86894000;5.39848000;2022-10-01T13:00:21;9.50;;;1.92;;
7829;SDS011;3960;51.86894000;5.39848000;2022-10-01T13:13:17;10.63;;;2.47;;
7829;SDS011;3960;51.86894000;5.39848000;2022-10-01T13:15:46;10.25;;;1.85;;
7829;SDS011;3960;51.86894000;5.39848000;2022-10-01T13:26:00;14.93;;;1.70;;
7829;SDS011;3960;51.86894000;5.39848000;2022-10-01T13:30:57;12.57;;;1.90;;
7829;SDS011;3960;51.86894000;5.39848000;2022-10-01T13:33:32;7.57;;;1.77;;
7829;SDS011;3960;51.86894000;5.39848000;2022-10-01T13:36:01;11.32;;;1.90;;
7829;SDS011;3960;51.86894000;5.39848000;2022-10-01T13:41:02;12.00;;;1.88;;
7829;SDS011;3960;51.86894000;5.39848000;2022-10-01T13:43:28;12.77;;;1.80;;
7829;SDS011;3960;51.86894000;5.39848000;2022-10-01T13:45:54;9.50;;;1.98;;
7829;SDS011;3960;51.86894000;5.39848000;2022-10-01T13:48:28;12.90;;;2.13;;
7829;SDS011;3960;51.86894000;5.39848000;2022-10-01T13:51:01;12.63;;;2.42;;
7829;SDS011;3960;51.86894000;5.39848000;2022-10-01T13:53:30;8.98;;;2.60;;
7829;SDS011;3960;51.86894000;5.39848000;2022-10-01T13:55:56;7.18;;;1.98;;
7829;SDS011;3960;51.86894000;5.39848000;2022-10-01T14:00:48;8.80;;;1.52;;
7829;SDS011;3960;51.86894000;5.39848000;2022-10-01T14:05:58;8.48;;;1.85;;
7829;SDS011;3960;51.86894000;5.39848000;2022-10-01T14:08:42;5.43;;;1.98;;
7829;SDS011;3960;51.86894000;5.39848000;2022-10-01T14:11:10;11.20;;;2.38;;
7829;SDS011;3960;51.86894000;5.39848000;2022-10-01T14:13:55;8.93;;;1.63;;
7829;SDS011;3960;51.86894000;5.39848000;2022-10-01T14:16:41;11.73;;;2.53;;
7829;SDS011;3960;51.86894000;5.39848000;2022-10-01T14:19:08;7.60;;;1.85;;
7829;SDS011;3960;51.86894000;5.39848000;2022-10-01T14:24:26;5.85;;;1.67;;
7829;SDS011;3960;51.86894000;5.39848000;2022-10-01T14:27:02;7.47;;;1.90;;
7829;SDS011;3960;51.86894000;5.39848000;2022-10-01T14:37:27;9.55;;;1.60;;
7829;SDS011;3960;51.86894000;5.39848000;2022-10-01T14:39:59;10.00;;;2.10;;
7829;SDS011;3960;51.86894000;5.39848000;2022-10-01T14:42:25;11.48;;;1.73;;
7829;SDS011;3960;51.86894000;5.39848000;2022-10-01T14:44:50;14.03;;;2.00;;
7829;SDS011;3960;51.86894000;5.39848000;2022-10-01T14:47:22;9.25;;;1.80;;
7829;SDS011;3960;51.86894000;5.39848000;2022-10-01T14:49:48;10.98;;;2.38;;
7829;SDS011;3960;51.86894000;5.39848000;2022-10-01T14:54:43;11.90;;;2.40;;
7829;SDS011;3960;51.86894000;5.39848000;2022-10-01T14:57:10;11.35;;;2.65;;
7829;SDS011;3960;51.86894000;5.39848000;2022-10-01T14:59:37;9.38;;;1.88;;
7829;SDS011;3960;51.86894000;5.39848000;2022-10-01T15:02:15;12.50;;;1.73;;
7829;SDS011;3960;51.86894000;5.39848000;2022-10-01T15:04:44;10.68;;;2.00;;
7829;SDS011;3960;51.86894000;5.39848000;2022-10-01T15:07:11;13.25;;;2.00;;
7829;SDS011;3960;51.86894000;5.39848000;2022-10-01T15:09:37;8.80;;;1.95;;
7829;SDS011;3960;51.86894000;5.39848000;2022-10-01T15:12:02;9.03;;;2.43;;
7829;SDS011;3960;51.86894000;5.39848000;2022-10-01T15:14:28;6.50;;;1.90;;
7829;SDS011;3960;51.86894000;5.39848000;2022-10-01T15:16:56;8.63;;;1.90;;
7829;SDS011;3960;51.86894000;5.39848000;2022-10-01T15:19:22;13.98;;;2.08;;